createdAt,value
2019-04-20T00:01:52.588Z,8.90
2019-04-20T00:04:25.721Z,8.86
2019-04-20T00:06:52.832Z,8.92
2019-04-20T00:09:24.059Z,8.96
2019-04-20T00:11:59.212Z,8.95
2019-04-20T00:14:19.697Z,9.00
2019-04-20T00:16:44.373Z,8.88
2019-04-20T00:19:17.264Z,8.79
2019-04-20T00:21:57.471Z,8.71
2019-04-20T00:24:29.233Z,8.60
2019-04-20T00:29:43.149Z,8.67
2019-04-20T00:32:02.603Z,8.55
2019-04-20T00:34:26.748Z,8.53
2019-04-20T00:36:47.609Z,8.47
2019-04-20T00:39:16.532Z,8.46
2019-04-20T00:41:50.571Z,8.47
2019-04-20T00:44:22.016Z,8.45
2019-04-20T00:46:58.490Z,8.43
2019-04-20T00:49:27.291Z,8.38
2019-04-20T00:52:05.175Z,8.26
2019-04-20T00:54:07.737Z,8.30
2019-04-20T00:56:35.171Z,8.33
2019-04-20T00:59:12.987Z,8.34
2019-04-20T01:01:51.930Z,8.24
2019-04-20T01:04:19.878Z,8.17
2019-04-20T01:07:06.265Z,8.07
2019-04-20T01:09:26.506Z,8.12
2019-04-20T01:11:54.491Z,8.12
2019-04-20T01:14:30.522Z,8.07
2019-04-20T01:16:58.183Z,8.10
2019-04-20T01:19:20.360Z,8.12
2019-04-20T01:21:53.406Z,8.08
2019-04-20T01:24:26.297Z,8.04
2019-04-20T01:26:50.531Z,8.03
2019-04-20T01:29:21.498Z,7.92
2019-04-20T01:31:55.703Z,7.98
2019-04-20T01:34:26.965Z,8.00
2019-04-20T01:36:57.577Z,7.92
2019-04-20T01:39:19.762Z,7.88
2019-04-20T01:41:37.149Z,7.82
2019-04-20T01:44:05.062Z,7.81
2019-04-20T01:46:33.363Z,7.80
2019-04-20T01:49:10.534Z,7.69
2019-04-20T01:51:37.350Z,7.65
2019-04-20T01:54:31.185Z,7.76
2019-04-20T01:57:13.946Z,7.73
2019-04-20T01:59:48.191Z,7.66
2019-04-20T02:02:35.459Z,7.57
2019-04-20T02:05:14.734Z,7.63
2019-04-20T02:07:42.095Z,7.59
2019-04-20T02:10:08.842Z,7.61
2019-04-20T02:12:37.639Z,7.53
2019-04-20T02:15:08.133Z,7.57
2019-04-20T02:17:40.801Z,7.58
2019-04-20T02:20:23.026Z,7.58
2019-04-20T02:22:46.483Z,7.44
2019-04-20T02:25:01.626Z,7.45
2019-04-20T02:27:36.904Z,7.44
2019-04-20T02:30:29.870Z,7.39
2019-04-20T02:33:09.183Z,7.35
2019-04-20T02:36:10.387Z,7.40
2019-04-20T02:39:13.676Z,7.28
2019-04-20T02:41:36.086Z,7.28
2019-04-20T02:44:01.297Z,7.13
2019-04-20T02:46:06.121Z,7.22
2019-04-20T02:48:41.559Z,7.15
2019-04-20T02:51:05.916Z,7.07
2019-04-20T02:53:43.325Z,7.07
2019-04-20T02:56:32.380Z,7.04
2019-04-20T02:58:42.239Z,7.01
2019-04-20T03:00:58.343Z,6.94
2019-04-20T03:03:15.834Z,6.87
2019-04-20T03:05:41.434Z,6.98
2019-04-20T03:08:17.673Z,6.98
2019-04-20T03:10:56.694Z,6.96
2019-04-20T03:13:18.639Z,6.89
2019-04-20T03:15:44.528Z,6.88
2019-04-20T03:18:13.558Z,6.82
2019-04-20T03:20:47.808Z,6.82
2019-04-20T03:23:24.838Z,6.84
2019-04-20T03:25:55.302Z,6.85
2019-04-20T03:28:18.282Z,6.81
2019-04-20T03:33:44.686Z,6.73
2019-04-20T03:36:08.653Z,6.71
2019-04-20T03:38:24.581Z,6.69
2019-04-20T03:40:41.331Z,6.79
2019-04-20T03:42:59.136Z,6.73
2019-04-20T03:45:28.138Z,6.67
2019-04-20T03:48:07.381Z,6.65
2019-04-20T03:50:46.357Z,6.58
2019-04-20T03:53:20.200Z,6.58
2019-04-20T03:56:19.703Z,6.60
2019-04-20T03:59:07.729Z,6.63
2019-04-20T04:02:03.374Z,6.54
2019-04-20T04:04:27.737Z,6.42
2019-04-20T04:06:44.398Z,6.43
2019-04-20T04:09:16.419Z,6.50
2019-04-20T04:11:48.971Z,6.50
2019-04-20T04:14:02.997Z,6.44
2019-04-20T04:16:39.406Z,6.37
2019-04-20T04:19:08.953Z,6.34
2019-04-20T04:21:44.794Z,6.39
2019-04-20T04:24:09.442Z,6.41
2019-04-20T04:26:39.465Z,6.36
2019-04-20T04:29:21.313Z,6.35
2019-04-20T04:31:52.053Z,6.28
2019-04-20T04:34:10.774Z,6.30
2019-04-20T04:36:36.036Z,6.37
2019-04-20T04:39:08.871Z,6.40
2019-04-20T04:41:36.352Z,6.40
2019-04-20T04:44:04.487Z,6.31
2019-04-20T04:46:14.463Z,6.25
2019-04-20T04:48:45.704Z,6.37
2019-04-20T04:51:20.279Z,6.33
2019-04-20T04:53:50.548Z,6.36
2019-04-20T04:56:13.178Z,6.48
2019-04-20T04:58:38.370Z,6.48
2019-04-20T05:01:11.837Z,6.48
2019-04-20T05:03:53.811Z,6.56
2019-04-20T05:06:31.525Z,6.60
2019-04-20T05:08:53.200Z,6.63
2019-04-20T05:11:17.320Z,6.67
2019-04-20T05:13:52.335Z,6.67
2019-04-20T05:16:33.746Z,6.65
2019-04-20T05:19:05.109Z,6.73
2019-04-20T05:21:49.601Z,6.77
2019-04-20T05:24:25.482Z,6.85
2019-04-20T05:27:19.292Z,6.97
2019-04-20T05:29:29.918Z,6.93
2019-04-20T05:32:02.699Z,7.04
2019-04-20T05:34:45.394Z,7.02
2019-04-20T05:37:23.665Z,7.08
2019-04-20T05:39:38.463Z,7.19
2019-04-20T05:42:12.671Z,7.24
2019-04-20T05:44:42.753Z,7.32
2019-04-20T05:47:11.317Z,7.38
2019-04-20T05:49:38.509Z,7.42
2019-04-20T05:52:22.537Z,7.48
2019-04-20T05:54:39.180Z,7.54
2019-04-20T05:57:14.457Z,7.65
2019-04-20T05:59:34.986Z,7.73
2019-04-20T06:02:03.800Z,7.79
2019-04-20T06:04:46.951Z,7.86
2019-04-20T06:07:02.421Z,7.98
2019-04-20T06:09:47.898Z,8.05
2019-04-20T06:12:07.603Z,8.17
2019-04-20T06:14:25.841Z,8.28
2019-04-20T06:17:11.187Z,8.33
2019-04-20T06:19:35.886Z,8.39
2019-04-20T06:22:19.097Z,8.48
2019-04-20T06:25:03.501Z,8.52
2019-04-20T06:27:36.197Z,8.63
2019-04-20T06:29:55.908Z,8.73
2019-04-20T06:33:11.224Z,8.84
2019-04-20T06:35:54.857Z,8.97
2019-04-20T06:38:10.344Z,9.07
2019-04-20T06:40:46.776Z,9.10
2019-04-20T06:43:07.453Z,9.19
2019-04-20T06:45:36.490Z,9.34
2019-04-20T06:48:05.851Z,9.44
2019-04-20T06:50:29.180Z,9.51
2019-04-20T06:53:16.281Z,9.63
2019-04-20T06:55:48.423Z,9.72
2019-04-20T06:58:31.890Z,9.83
2019-04-20T07:00:42.231Z,10.00
2019-04-20T07:03:18.089Z,10.12
2019-04-20T07:05:39.098Z,10.13
2019-04-20T07:08:27.660Z,10.35
2019-04-20T07:10:44.567Z,10.35
2019-04-20T07:13:04.751Z,10.51
2019-04-20T07:15:42.288Z,10.63
2019-04-20T07:18:17.183Z,10.90
2019-04-20T07:21:23.487Z,10.82
2019-04-20T07:23:57.492Z,10.82
2019-04-20T07:26:22.357Z,11.06
2019-04-20T07:28:52.826Z,11.12
2019-04-20T07:31:15.882Z,11.12
2019-04-20T07:33:47.997Z,11.33
2019-04-20T07:36:22.644Z,11.47
2019-04-20T07:38:47.653Z,11.56
2019-04-20T07:41:20.509Z,11.64
2019-04-20T07:43:52.981Z,11.78
2019-04-20T07:46:20.884Z,11.86
2019-04-20T07:48:36.567Z,11.95
2019-04-20T07:51:01.136Z,12.00
2019-04-20T07:53:34.396Z,12.23
2019-04-20T07:56:13.069Z,12.40
2019-04-20T07:58:28.347Z,12.46
2019-04-20T08:01:23.796Z,12.65
2019-04-20T08:03:55.803Z,12.65
2019-04-20T08:06:19.334Z,12.92
2019-04-20T08:08:56.090Z,13.01
2019-04-20T08:11:21.596Z,13.17
2019-04-20T08:14:03.403Z,13.22
2019-04-20T08:16:40.845Z,13.25
2019-04-20T08:18:53.937Z,13.40
2019-04-20T08:21:28.411Z,13.58
2019-04-20T08:23:55.519Z,13.70
2019-04-20T08:26:10.979Z,13.75
2019-04-20T08:28:50.358Z,13.83
2019-04-20T08:32:03.224Z,13.93
2019-04-20T08:34:31.215Z,14.01
2019-04-20T08:36:56.637Z,14.09
2019-04-20T08:39:37.422Z,14.25
2019-04-20T08:42:00.707Z,14.35
2019-04-20T08:47:05.170Z,14.32
2019-04-20T08:49:29.680Z,14.43
2019-04-20T08:52:09.189Z,14.62
2019-04-20T08:54:17.070Z,14.71
2019-04-20T08:56:39.311Z,14.86
2019-04-20T08:58:59.634Z,14.86
2019-04-20T09:01:30.870Z,14.95
2019-04-20T09:04:05.417Z,15.04
2019-04-20T09:06:41.980Z,15.33
2019-04-20T09:09:11.786Z,15.38
2019-04-20T09:11:41.547Z,15.52
2019-04-20T09:13:55.918Z,15.48
2019-04-20T09:16:28.613Z,15.68
2019-04-20T09:18:56.923Z,15.78
2019-04-20T09:21:28.742Z,15.79
2019-04-20T09:24:04.532Z,15.88
2019-04-20T09:26:32.782Z,15.88
2019-04-20T09:28:59.127Z,15.75
2019-04-20T09:31:35.882Z,15.79
2019-04-20T09:34:33.669Z,15.95
2019-04-20T09:37:22.434Z,15.82
2019-04-20T09:39:44.913Z,15.86
2019-04-20T09:42:14.109Z,15.92
2019-04-20T09:44:47.417Z,16.07
2019-04-20T09:47:10.540Z,16.28
2019-04-20T09:49:51.907Z,16.44
2019-04-20T09:52:21.269Z,16.49
2019-04-20T09:54:55.155Z,16.47
2019-04-20T09:57:26.758Z,16.65
2019-04-20T09:59:53.717Z,16.71
2019-04-20T10:02:10.238Z,16.62
2019-04-20T10:04:31.404Z,16.53
2019-04-20T10:07:00.028Z,16.73
2019-04-20T10:09:32.695Z,16.75
2019-04-20T10:11:55.873Z,16.84
2019-04-20T10:14:22.706Z,16.97
2019-04-20T10:16:49.798Z,16.93
2019-04-20T10:19:20.591Z,17.10
2019-04-20T10:21:45.742Z,17.22
2019-04-20T10:24:12.657Z,17.41
2019-04-20T10:26:40.768Z,17.39
2019-04-20T10:29:07.989Z,17.16
2019-04-20T10:31:42.675Z,17.13
2019-04-20T10:34:03.917Z,17.38
2019-04-20T10:36:37.621Z,17.40
2019-04-20T10:39:06.678Z,17.48
2019-04-20T10:41:44.605Z,17.54
2019-04-20T10:44:02.861Z,17.64
2019-04-20T10:46:31.106Z,17.76
2019-04-20T10:49:02.624Z,17.92
2019-04-20T10:51:26.806Z,17.87
2019-04-20T10:53:54.201Z,17.75
2019-04-20T10:56:21.322Z,17.53
2019-04-20T10:58:49.629Z,17.40
2019-04-20T11:01:17.839Z,17.84
2019-04-20T11:03:45.033Z,18.09
2019-04-20T11:06:11.922Z,17.99
2019-04-20T11:08:38.636Z,17.89
2019-04-20T11:11:12.944Z,18.04
2019-04-20T11:13:35.267Z,18.33
2019-04-20T11:16:02.408Z,18.47
2019-04-20T11:18:29.364Z,18.54
2019-04-20T11:20:57.461Z,18.41
2019-04-20T11:23:24.546Z,18.10
2019-04-20T11:25:52.486Z,17.95
2019-04-20T11:28:19.920Z,17.94
2019-04-20T11:30:47.814Z,18.34
2019-04-20T11:33:16.012Z,18.42
2019-04-20T11:35:45.190Z,18.21
2019-04-20T11:38:14.273Z,18.21
2019-04-20T11:40:42.094Z,18.26
2019-04-20T11:43:11.483Z,18.69
2019-04-20T11:45:38.566Z,18.77
2019-04-20T11:48:05.504Z,18.76
2019-04-20T11:50:33.624Z,18.92
2019-04-20T11:53:01.534Z,19.00
2019-04-20T11:55:28.626Z,18.89
2019-04-20T11:57:56.210Z,18.87
2019-04-20T12:00:43.199Z,18.95
2019-04-20T12:03:24.821Z,19.01
2019-04-20T12:05:51.632Z,18.76
2019-04-20T12:08:16.636Z,18.73
2019-04-20T12:10:50.923Z,19.23
2019-04-20T12:13:14.732Z,19.41
2019-04-20T12:15:41.606Z,19.09
2019-04-20T12:18:09.570Z,19.44
2019-04-20T12:20:36.704Z,19.46
2019-04-20T12:23:04.329Z,19.25
2019-04-20T12:25:34.166Z,19.38
2019-04-20T12:28:02.270Z,19.49
2019-04-20T12:30:30.063Z,20.04
2019-04-20T12:33:01.497Z,19.35
2019-04-20T12:35:26.491Z,19.61
2019-04-20T12:37:54.607Z,19.62
2019-04-20T12:40:21.913Z,20.17
2019-04-20T12:42:49.280Z,20.71
2019-04-20T12:45:17.674Z,20.81
2019-04-20T12:47:46.965Z,20.90
2019-04-20T12:50:14.096Z,21.14
2019-04-20T12:52:41.105Z,21.29
2019-04-20T12:55:08.516Z,21.12
2019-04-20T12:57:36.496Z,21.57
2019-04-20T13:00:05.634Z,21.78
2019-04-20T13:02:33.478Z,21.31
2019-04-20T13:05:01.586Z,21.05
2019-04-20T13:07:38.240Z,21.22
2019-04-20T13:10:02.207Z,21.31
2019-04-20T13:12:47.253Z,21.04
2019-04-20T13:15:42.446Z,21.13
2019-04-20T13:18:09.995Z,21.40
2019-04-20T13:20:36.773Z,21.51
2019-04-20T13:23:05.544Z,21.85
2019-04-20T13:25:32.885Z,21.83
2019-04-20T13:28:00.941Z,22.38
2019-04-20T13:30:28.074Z,21.75
2019-04-20T13:32:57.065Z,21.75
2019-04-20T13:35:23.421Z,21.77
2019-04-20T13:37:50.315Z,21.42
2019-04-20T13:40:17.692Z,22.13
2019-04-20T13:42:45.624Z,21.80
2019-04-20T13:45:13.041Z,22.06
2019-04-20T13:47:40.865Z,22.41
2019-04-20T13:50:09.724Z,22.74
2019-04-20T13:52:36.881Z,22.48
2019-04-20T13:55:04.228Z,23.04
2019-04-20T13:57:38.126Z,22.89
2019-04-20T14:00:25.972Z,22.92
2019-04-20T14:03:00.552Z,22.38
2019-04-20T14:05:31.341Z,22.96
2019-04-20T14:08:00.803Z,23.14
2019-04-20T14:10:27.586Z,23.18
2019-04-20T14:13:01.614Z,23.09
2019-04-20T14:15:23.017Z,23.12
2019-04-20T14:17:51.033Z,22.70
2019-04-20T14:20:20.305Z,22.93
2019-04-20T14:22:47.287Z,23.55
2019-04-20T14:25:15.336Z,23.06
2019-04-20T14:27:42.649Z,23.37
2019-04-20T14:30:10.973Z,23.62
2019-04-20T14:32:38.879Z,23.04
2019-04-20T14:35:07.132Z,23.14
2019-04-20T14:37:34.984Z,23.01
2019-04-20T14:40:04.231Z,23.18
2019-04-20T14:42:39.453Z,22.68
2019-04-20T14:44:59.772Z,22.88
2019-04-20T14:47:27.825Z,22.33
2019-04-20T14:49:56.629Z,22.66
2019-04-20T14:52:23.912Z,22.45
2019-04-20T14:54:50.730Z,22.20
2019-04-20T14:57:17.416Z,22.66
2019-04-20T14:59:49.570Z,22.35
2019-04-20T15:02:19.458Z,22.29
2019-04-20T15:04:47.365Z,21.80
2019-04-20T15:07:14.977Z,22.17
2019-04-20T15:09:42.786Z,21.63
2019-04-20T15:12:10.927Z,21.73
2019-04-20T15:14:38.688Z,21.39
2019-04-20T15:17:06.807Z,21.34
2019-04-20T15:19:59.471Z,21.51
2019-04-20T15:22:31.663Z,21.59
2019-04-20T15:24:59.840Z,21.46
2019-04-20T15:27:28.063Z,21.69
2019-04-20T15:29:56.129Z,21.50
2019-04-20T15:32:25.020Z,20.97
2019-04-20T15:34:53.093Z,21.05
2019-04-20T15:37:20.299Z,21.27
2019-04-20T15:39:47.436Z,21.25
2019-04-20T15:42:15.475Z,20.87
2019-04-20T15:44:43.013Z,20.71
2019-04-20T15:47:11.172Z,20.77
2019-04-20T15:49:38.169Z,21.11
2019-04-20T15:52:05.890Z,20.66
2019-04-20T15:54:33.865Z,20.15
2019-04-20T15:57:04.595Z,20.17
2019-04-20T15:59:30.661Z,20.14
2019-04-20T16:02:03.161Z,20.36
2019-04-20T16:04:52.622Z,20.04
2019-04-20T16:07:19.670Z,20.28
2019-04-20T16:09:46.547Z,20.58
2019-04-20T16:12:13.331Z,20.62
2019-04-20T16:14:41.754Z,20.48
2019-04-20T16:17:12.289Z,20.23
2019-04-20T16:19:49.144Z,20.02
2019-04-20T16:22:07.900Z,19.81
2019-04-20T16:24:38.397Z,19.26
2019-04-20T16:27:13.819Z,19.05
2019-04-20T16:29:41.882Z,18.88
2019-04-20T16:32:08.976Z,18.83
2019-04-20T16:34:37.135Z,18.67
2019-04-20T16:37:04.761Z,18.65
2019-04-20T16:39:32.284Z,18.45
2019-04-20T16:42:00.409Z,18.18
2019-04-20T16:44:27.463Z,18.30
2019-04-20T16:46:54.362Z,18.15
2019-04-20T16:49:21.342Z,18.20
2019-04-20T16:51:49.314Z,17.86
2019-04-20T16:54:17.485Z,17.77
2019-04-20T16:56:44.621Z,17.72
2019-04-20T16:59:13.233Z,17.73
2019-04-20T17:01:40.622Z,17.68
2019-04-20T17:04:12.803Z,17.57
2019-04-20T17:06:38.084Z,17.57
2019-04-20T17:09:05.622Z,17.52
2019-04-20T17:11:34.160Z,17.38
2019-04-20T17:14:03.108Z,17.20
2019-04-20T17:16:29.725Z,17.21
2019-04-20T17:18:57.365Z,17.01
2019-04-20T17:21:27.697Z,16.99
2019-04-20T17:23:53.307Z,17.14
2019-04-20T17:26:32.951Z,17.12
2019-04-20T17:29:13.833Z,17.08
2019-04-20T17:32:07.880Z,16.85
2019-04-20T17:34:46.980Z,16.74
2019-04-20T17:37:04.540Z,16.65
2019-04-20T17:39:41.887Z,16.48
2019-04-20T17:42:16.571Z,16.45
2019-04-20T17:44:44.810Z,16.43
2019-04-20T17:47:10.959Z,16.41
2019-04-20T17:49:41.341Z,16.30
2019-04-20T17:52:17.625Z,16.22
2019-04-20T17:54:45.786Z,16.24
2019-04-20T17:57:13.139Z,16.09
2019-04-20T17:59:47.104Z,15.93
2019-04-20T18:03:03.365Z,15.75
2019-04-20T18:05:39.301Z,15.69
2019-04-20T18:08:10.351Z,15.68
2019-04-20T18:10:30.310Z,15.66
2019-04-20T18:12:50.393Z,15.59
2019-04-20T18:15:31.290Z,15.56
2019-04-20T18:18:24.129Z,15.40
2019-04-20T18:20:52.994Z,15.31
2019-04-20T18:23:25.538Z,15.22
2019-04-20T18:26:17.166Z,15.26
2019-04-20T18:28:32.643Z,15.16
2019-04-20T18:31:09.113Z,15.22
2019-04-20T18:33:38.779Z,14.93
2019-04-20T18:36:05.925Z,14.96
2019-04-20T18:38:39.186Z,14.93
2019-04-20T18:41:07.001Z,14.86
2019-04-20T18:43:31.384Z,14.72
2019-04-20T18:46:20.392Z,14.69
2019-04-20T18:48:52.303Z,14.66
2019-04-20T18:50:57.440Z,14.64
2019-04-20T18:53:33.637Z,14.60
2019-04-20T18:55:56.008Z,14.36
2019-04-20T18:58:22.851Z,14.22
2019-04-20T19:00:51.911Z,13.94
2019-04-20T19:03:26.950Z,13.94
2019-04-20T19:05:47.651Z,13.89
2019-04-20T19:08:15.760Z,13.79
2019-04-20T19:10:43.691Z,13.76
2019-04-20T19:13:29.677Z,13.55
2019-04-20T19:16:15.273Z,13.54
2019-04-20T19:19:04.241Z,13.51
2019-04-20T19:21:19.224Z,13.36
2019-04-20T19:23:56.215Z,13.40
2019-04-20T19:26:20.870Z,13.27
2019-04-20T19:28:50.547Z,13.23
2019-04-20T19:31:28.717Z,13.03
2019-04-20T19:34:01.395Z,12.82
2019-04-20T19:36:19.824Z,12.73
2019-04-20T19:38:52.378Z,12.57
2019-04-20T19:41:25.408Z,12.48
2019-04-20T19:43:48.335Z,12.44
2019-04-20T19:46:39.665Z,12.34
2019-04-20T19:48:48.314Z,12.25
2019-04-20T19:51:24.061Z,12.16
2019-04-20T19:53:58.710Z,12.07
2019-04-20T19:56:10.641Z,11.94
2019-04-20T19:58:39.784Z,11.86
2019-04-20T20:00:59.888Z,11.84
2019-04-20T20:03:27.934Z,11.86
2019-04-20T20:05:56.497Z,11.77
2019-04-20T20:08:25.927Z,11.68
2019-04-20T20:10:52.609Z,11.64
2019-04-20T20:13:20.464Z,11.58
2019-04-20T20:15:47.401Z,11.59
2019-04-20T20:18:30.663Z,11.59
2019-04-20T20:21:00.600Z,11.52
2019-04-20T20:23:12.053Z,11.49
2019-04-20T20:25:43.085Z,11.31
2019-04-20T20:28:18.860Z,11.21
2019-04-20T20:30:50.845Z,11.17
2019-04-20T20:33:24.221Z,11.13
2019-04-20T20:35:45.805Z,11.03
2019-04-20T20:38:16.762Z,11.01
2019-04-20T20:40:39.668Z,10.97
2019-04-20T20:43:14.766Z,10.88
2019-04-20T20:45:38.671Z,10.86
2019-04-20T20:48:18.474Z,10.86
2019-04-20T20:50:50.256Z,10.74
2019-04-20T20:53:10.288Z,10.66
2019-04-20T20:55:34.181Z,10.66
2019-04-20T20:58:05.259Z,10.50
2019-04-20T21:00:37.257Z,10.50
2019-04-20T21:03:00.757Z,10.46
2019-04-20T21:05:23.876Z,10.42
2019-04-20T21:07:51.344Z,10.43
2019-04-20T21:10:25.942Z,10.35
2019-04-20T21:12:54.098Z,10.32
2019-04-20T21:15:20.787Z,10.06
2019-04-20T21:18:12.206Z,10.06
2019-04-20T21:20:33.240Z,10.04
2019-04-20T21:23:01.330Z,10.03
2019-04-20T21:25:17.060Z,10.03
2019-04-20T21:27:44.990Z,10.00
2019-04-20T21:30:18.419Z,10.00
2019-04-20T21:32:45.675Z,9.89
2019-04-20T21:35:12.816Z,9.84
2019-04-20T21:37:41.342Z,9.84
2019-04-20T21:40:16.661Z,9.79
2019-04-20T21:42:45.580Z,9.76
2019-04-20T21:45:10.721Z,10.14
2019-04-20T21:47:36.512Z,11.28
2019-04-20T21:50:20.650Z,11.12
2019-04-20T21:52:38.832Z,11.12
2019-04-20T21:55:00.343Z,11.17
2019-04-20T21:57:32.514Z,11.02
2019-04-20T22:00:02.582Z,10.45
2019-04-20T22:02:32.215Z,10.16
2019-04-20T22:04:53.505Z,9.87
2019-04-20T22:07:20.712Z,9.87
2019-04-20T22:09:52.785Z,9.78
2019-04-20T22:12:16.424Z,9.72
2019-04-20T22:14:43.907Z,9.70
2019-04-20T22:17:14.259Z,9.49
2019-04-20T22:19:45.888Z,9.53
2019-04-20T22:22:18.448Z,9.53
2019-04-20T22:24:50.564Z,9.33
2019-04-20T22:27:14.494Z,9.33
2019-04-20T22:29:34.423Z,9.31
2019-04-20T22:32:07.179Z,9.19
2019-04-20T22:34:31.931Z,9.15
2019-04-20T22:36:59.925Z,9.22
2019-04-20T22:39:39.414Z,9.10
2019-04-20T22:42:05.614Z,9.00
2019-04-20T22:44:31.052Z,9.00
2019-04-20T22:46:58.483Z,8.93
2019-04-20T22:49:43.052Z,8.91
2019-04-20T22:52:03.034Z,8.96
2019-04-20T22:54:39.787Z,8.95
2019-04-20T22:57:03.609Z,8.95
2019-04-20T22:59:25.078Z,8.87
2019-04-20T23:01:55.225Z,8.78
2019-04-20T23:04:19.047Z,8.64
2019-04-20T23:06:49.754Z,8.66
2019-04-20T23:09:15.013Z,8.64
2019-04-20T23:11:43.328Z,8.58
2019-04-20T23:14:10.824Z,8.55
2019-04-20T23:16:43.205Z,8.35
2019-04-20T23:19:07.901Z,8.33
2019-04-20T23:21:34.838Z,8.34
2019-04-20T23:24:06.378Z,8.20
2019-04-20T23:26:36.888Z,8.23
2019-04-20T23:29:02.474Z,8.31
2019-04-20T23:31:30.342Z,8.21
2019-04-20T23:34:01.392Z,8.24
2019-04-20T23:36:34.828Z,8.23
2019-04-20T23:38:59.204Z,8.23
2019-04-20T23:41:23.837Z,8.31
2019-04-20T23:44:29.335Z,8.99
2019-04-20T23:47:21.571Z,9.29
2019-04-20T23:50:05.979Z,9.65
2019-04-20T23:52:43.203Z,9.49
2019-04-20T23:54:58.147Z,9.59
2019-04-20T23:57:17.766Z,9.20
2019-04-20T23:59:46.587Z,9.24
